Time;durP1;ratioP1;P1;durP2;ratioP2;P2;SDS_P1;SDS_P2;PMS_P1;PMS_P2;Temp;Humidity;BMP_temperature;BMP_pressure;BME280_temperature;BME280_humidity;BME280_pressure;Samples;Min_cycle;Max_cycle;Signal;HPM_P1;HPM_P2
2023/05/05 00:02:12;;;;;;;46.92;42.45;;;12.60;99.90;;;;;;5225397;28;20044;-72
2023/05/05 00:04:43;;;;;;;49.47;45.20;;;12.50;99.90;;;;;;5226614;28;20018;-72
2023/05/05 00:07:14;;;;;;;44.83;40.83;;;12.50;99.90;;;;;;5229077;28;20492;-72
2023/05/05 00:09:45;;;;;;;44.67;40.15;;;12.50;99.90;;;;;;5229091;28;20021;-73
2023/05/05 00:12:15;;;;;;;44.90;41.10;;;12.60;99.90;;;;;;5228809;28;20064;-72
2023/05/05 00:14:46;;;;;;;45.00;40.92;;;12.50;99.90;;;;;;5228776;28;20045;-72
2023/05/05 00:17:17;;;;;;;43.53;39.25;;;12.50;99.90;;;;;;5228756;28;20036;-72
2023/05/05 00:19:48;;;;;;;46.88;42.47;;;12.40;99.90;;;;;;5228745;28;20413;-73
2023/05/05 00:22:19;;;;;;;40.45;36.80;;;12.40;99.90;;;;;;5228603;28;20063;-73
2023/05/05 00:24:50;;;;;;;45.30;41.38;;;12.50;99.90;;;;;;5228715;28;20029;-72
2023/05/05 00:27:20;;;;;;;43.15;39.03;;;12.50;99.90;;;;;;5228435;28;20028;-72
2023/05/05 00:29:51;;;;;;;44.15;40.30;;;12.50;99.90;;;;;;5210639;28;20469;-71
2023/05/05 00:32:22;;;;;;;46.40;41.88;;;12.50;99.90;;;;;;5228391;28;20033;-72
2023/05/05 00:34:53;;;;;;;42.75;38.83;;;12.40;99.90;;;;;;5228453;28;20086;-73
2023/05/05 00:37:24;;;;;;;44.65;40.67;;;12.50;99.90;;;;;;5228553;28;20090;-72
2023/05/05 00:39:54;;;;;;;43.78;39.83;;;12.50;99.90;;;;;;5228186;28;20044;-73
2023/05/05 00:42:26;;;;;;;46.67;42.58;;;12.40;99.90;;;;;;5228257;28;20025;-71
2023/05/05 00:44:57;;;;;;;45.92;41.20;;;12.50;99.90;;;;;;5228295;28;20484;-73
2023/05/05 00:47:28;;;;;;;46.13;41.83;;;12.30;99.90;;;;;;5210255;28;20090;-72
2023/05/05 00:49:59;;;;;;;45.05;40.85;;;12.40;99.90;;;;;;5210410;28;20033;-72
2023/05/05 00:52:30;;;;;;;41.30;37.63;;;12.30;99.90;;;;;;5228641;28;20096;-73
2023/05/05 00:55:02;;;;;;;39.40;35.67;;;12.40;99.90;;;;;;5228139;28;20032;-72
2023/05/05 00:57:34;;;;;;;43.70;40.05;;;12.30;99.90;;;;;;5228060;28;20033;-72
2023/05/05 01:00:08;;;;;;;41.80;37.60;;;12.40;99.90;;;;;;5228038;28;20025;-72
2023/05/05 01:02:40;;;;;;;41.42;37.78;;;12.30;99.90;;;;;;5228059;28;20783;-72
2023/05/05 01:05:13;;;;;;;40.50;36.97;;;12.30;99.90;;;;;;5227790;28;20044;-72
2023/05/05 01:08:22;;;;;;;38.33;34.75;;;12.30;99.90;;;;;;5228142;28;20062;-72
2023/05/05 01:10:59;;;;;;;38.28;34.22;;;12.30;99.90;;;;;;5228151;28;20025;-72
2023/05/05 01:13:45;;;;;;;41.17;37.00;;;12.30;99.90;;;;;;5227720;28;20056;-73
2023/05/05 01:16:29;;;;;;;41.28;37.25;;;12.30;99.90;;;;;;5227461;28;20063;-72
2023/05/05 01:19:03;;;;;;;39.67;35.72;;;12.30;99.90;;;;;;5227925;28;20368;-72
2023/05/05 01:21:46;;;;;;;40.00;36.05;;;12.20;99.90;;;;;;5209721;28;20024;-73
2023/05/05 01:24:38;;;;;;;40.75;36.72;;;12.20;99.90;;;;;;5227733;28;20078;-72
2023/05/05 01:27:17;;;;;;;36.75;33.17;;;12.20;99.90;;;;;;5227670;28;20036;-72
2023/05/05 01:30:02;;;;;;;40.63;36.40;;;12.20;99.90;;;;;;5209820;28;20017;-73
2023/05/05 01:32:42;;;;;;;39.03;35.03;;;12.30;99.90;;;;;;5227735;28;20021;-72
2023/05/05 01:35:19;;;;;;;40.20;36.30;;;12.10;99.90;;;;;;5227863;28;20025;-73
2023/05/05 01:37:59;;;;;;;39.90;36.13;;;12.10;99.90;;;;;;5227893;28;20025;-72
2023/05/05 01:40:32;;;;;;;38.75;35.13;;;12.20;99.90;;;;;;5227703;28;20100;-73
2023/05/05 01:43:07;;;;;;;39.05;35.20;;;12.30;99.90;;;;;;5227404;28;20060;-72
2023/05/05 01:45:41;;;;;;;42.38;38.40;;;12.30;99.90;;;;;;5227180;28;20099;-72
2023/05/05 01:48:16;;;;;;;40.35;36.47;;;12.10;99.90;;;;;;5227166;28;20025;-72
2023/05/05 01:50:48;;;;;;;41.05;36.92;;;12.10;99.90;;;;;;5227052;28;20017;-72
2023/05/05 01:53:22;;;;;;;36.00;32.70;;;12.00;99.90;;;;;;5209121;28;20032;-72
2023/05/05 01:55:54;;;;;;;38.28;34.35;;;12.10;99.90;;;;;;5226885;28;20032;-73
2023/05/05 01:58:27;;;;;;;38.75;35.00;;;12.10;99.90;;;;;;5226801;28;20112;-73
2023/05/05 02:00:59;;;;;;;38.05;34.17;;;12.10;99.90;;;;;;5226786;28;20028;-72
2023/05/05 02:03:32;;;;;;;37.00;33.47;;;12.10;99.90;;;;;;5226671;28;20427;-72
2023/05/05 02:06:06;;;;;;;38.40;34.50;;;12.10;99.90;;;;;;5226672;28;20702;-72
2023/05/05 02:08:39;;;;;;;40.88;36.78;;;12.10;99.90;;;;;;5226628;28;20021;-72
2023/05/05 02:11:12;;;;;;;38.58;34.60;;;12.10;99.90;;;;;;5226534;28;20021;-73
2023/05/05 02:13:44;;;;;;;38.75;33.42;;;12.10;99.90;;;;;;5208392;28;20037;-72
2023/05/05 02:16:17;;;;;;;39.47;33.10;;;12.10;99.90;;;;;;5226680;28;20033;-72
2023/05/05 02:18:48;;;;;;;46.72;36.80;;;12.10;99.90;;;;;;5226437;28;20044;-72
2023/05/05 02:21:19;;;;;;;40.17;36.17;;;12.10;99.90;;;;;;5226156;28;20159;-72
2023/05/05 02:23:51;;;;;;;38.22;33.80;;;12.10;99.90;;;;;;5226801;28;20094;-72
2023/05/05 02:26:23;;;;;;;37.35;33.60;;;12.20;99.90;;;;;;5225990;28;20524;-72
2023/05/05 02:29:26;;;;;;;38.30;34.53;;;12.10;99.90;;;;;;5225771;28;20120;-72
2023/05/05 02:32:03;;;;;;;40.83;36.33;;;12.00;99.90;;;;;;5211937;28;20175;-72
2023/05/05 02:34:40;;;;;;;39.50;35.65;;;12.00;99.90;;;;;;5226221;28;20017;-73
2023/05/05 02:37:18;;;;;;;39.58;35.55;;;12.10;99.90;;;;;;5226213;28;20048;-72
2023/05/05 02:39:57;;;;;;;39.38;35.40;;;12.10;99.90;;;;;;5208281;28;20025;-72
2023/05/05 02:42:34;;;;;;;43.15;39.10;;;12.10;99.90;;;;;;5226014;28;20040;-72
2023/05/05 02:45:14;;;;;;;42.20;38.72;;;12.10;99.90;;;;;;5225934;28;20041;-73
2023/05/05 02:47:45;;;;;;;40.03;35.88;;;12.10;99.90;;;;;;5226101;28;20051;-72
2023/05/05 02:50:16;;;;;;;40.42;36.00;;;12.10;99.90;;;;;;5225649;28;20139;-72
2023/05/05 02:52:47;;;;;;;39.58;35.65;;;12.10;99.90;;;;;;5225892;28;20040;-72
2023/05/05 02:55:18;;;;;;;42.88;38.28;;;12.10;99.90;;;;;;5225974;28;20021;-72
2023/05/05 02:58:06;;;;;;;38.72;34.63;;;12.10;99.90;;;;;;5226439;28;20036;-72
2023/05/05 03:01:02;;;;;;;38.47;34.95;;;12.10;99.90;;;;;;5208127;28;20493;-72
2023/05/05 03:03:43;;;;;;;36.42;33.03;;;12.10;99.90;;;;;;5225899;28;20040;-72
2023/05/05 03:06:17;;;;;;;37.25;33.72;;;12.10;99.90;;;;;;5225572;28;20036;-73
2023/05/05 03:09:33;;;;;;;38.85;35.20;;;12.10;99.90;;;;;;5225913;28;20036;-72
2023/05/05 03:12:07;;;;;;;39.13;35.25;;;12.10;99.90;;;;;;5162049;28;20088;-72
2023/05/05 03:14:43;;;;;;;40.97;37.17;;;12.10;99.90;;;;;;5202719;28;20143;-72
2023/05/05 03:17:17;;;;;;;39.58;35.63;;;12.20;99.90;;;;;;5225891;28;20044;-72
2023/05/05 03:19:49;;;;;;;39.67;35.85;;;12.30;99.90;;;;;;5225852;28;20104;-72
2023/05/05 03:22:20;;;;;;;39.72;35.85;;;12.30;99.90;;;;;;5208098;28;20028;-72
2023/05/05 03:24:51;;;;;;;42.08;37.97;;;12.20;99.90;;;;;;5225696;28;20143;-72
2023/05/05 03:27:22;;;;;;;43.22;39.25;;;12.20;99.90;;;;;;5225586;28;20033;-72
2023/05/05 03:29:52;;;;;;;40.53;36.67;;;12.20;99.90;;;;;;5225656;28;20431;-72
2023/05/05 03:32:23;;;;;;;41.85;37.95;;;12.20;99.90;;;;;;5225529;28;20036;-72
2023/05/05 03:34:54;;;;;;;42.95;38.00;;;12.20;99.90;;;;;;5224992;28;20029;-73
2023/05/05 03:37:25;;;;;;;42.45;38.00;;;12.30;99.90;;;;;;5225617;28;20029;-73
2023/05/05 03:39:55;;;;;;;40.58;36.72;;;12.30;99.90;;;;;;5211433;28;20063;-72
2023/05/05 03:42:26;;;;;;;41.92;37.78;;;12.20;99.90;;;;;;5211388;28;20079;-73
2023/05/05 03:44:57;;;;;;;44.58;40.08;;;12.10;99.90;;;;;;5229461;28;20025;-72
2023/05/05 03:47:28;;;;;;;42.72;38.63;;;12.20;99.90;;;;;;5229469;28;20368;-73
2023/05/05 03:49:59;;;;;;;45.35;40.85;;;12.30;99.90;;;;;;5229344;28;20029;-72
2023/05/05 03:52:30;;;;;;;43.00;38.80;;;12.20;99.90;;;;;;5229402;28;20028;-72
2023/05/05 03:55:01;;;;;;;43.33;38.42;;;12.20;99.90;;;;;;5229200;28;20079;-72
2023/05/05 03:57:33;;;;;;;41.13;36.85;;;12.20;99.90;;;;;;5229295;28;20028;-72
2023/05/05 04:00:04;;;;;;;44.85;39.05;;;12.20;99.90;;;;;;5211286;28;20021;-72
2023/05/05 04:02:35;;;;;;;43.40;39.20;;;12.20;99.90;;;;;;5229216;28;20032;-72
2023/05/05 04:05:06;;;;;;;39.78;35.88;;;12.10;99.90;;;;;;5228896;28;20033;-73
2023/05/05 04:07:37;;;;;;;42.45;38.35;;;12.20;99.90;;;;;;5229033;28;20028;-72
2023/05/05 04:10:08;;;;;;;41.17;37.55;;;12.20;99.90;;;;;;5228982;28;20033;-72
2023/05/05 04:12:39;;;;;;;41.30;37.47;;;12.20;99.90;;;;;;5228631;28;20447;-73
2023/05/05 04:15:10;;;;;;;39.55;35.67;;;12.10;99.90;;;;;;5228939;28;20132;-73
2023/05/05 04:17:41;;;;;;;40.58;37.00;;;12.30;99.90;;;;;;5228955;28;20175;-72
2023/05/05 04:20:12;;;;;;;38.42;34.75;;;12.20;99.90;;;;;;5228937;28;20083;-72
2023/05/05 04:22:43;;;;;;;39.20;35.72;;;12.20;99.90;;;;;;5228701;28;20033;-72
2023/05/05 04:25:13;;;;;;;39.70;36.33;;;12.20;99.90;;;;;;5228707;28;20710;-72
2023/05/05 04:27:44;;;;;;;37.60;33.97;;;12.20;99.90;;;;;;5228662;28;20507;-73
2023/05/05 04:30:15;;;;;;;41.50;37.88;;;12.40;99.90;;;;;;5228744;28;20016;-72
2023/05/05 04:32:46;;;;;;;39.65;36.03;;;12.30;99.90;;;;;;5228873;28;20025;-72
2023/05/05 04:35:17;;;;;;;42.03;38.47;;;12.30;99.90;;;;;;5228513;28;20028;-72
2023/05/05 04:37:48;;;;;;;41.80;38.20;;;12.40;99.90;;;;;;5228462;28;20056;-72
2023/05/05 04:40:19;;;;;;;38.60;35.13;;;12.40;99.90;;;;;;5228371;28;20021;-72
2023/05/05 04:42:50;;;;;;;40.38;37.25;;;12.40;99.90;;;;;;5228185;28;20025;-72
2023/05/05 04:45:21;;;;;;;43.38;39.47;;;12.50;99.90;;;;;;5228132;28;20079;-73
2023/05/05 04:47:51;;;;;;;40.20;36.35;;;12.60;99.90;;;;;;5228522;28;20029;-72
2023/05/05 04:50:22;;;;;;;42.45;39.05;;;12.60;99.90;;;;;;5209574;28;20100;-72
2023/05/05 04:52:53;;;;;;;39.13;35.47;;;12.70;99.90;;;;;;5228107;28;20713;-72
2023/05/05 04:55:24;;;;;;;42.13;38.30;;;12.70;99.90;;;;;;5228131;28;20031;-72
2023/05/05 04:57:54;;;;;;;41.35;37.63;;;12.70;99.90;;;;;;5210254;28;20078;-72
2023/05/05 05:00:26;;;;;;;43.78;40.17;;;12.70;99.90;;;;;;5228241;28;20074;-72
2023/05/05 05:02:57;;;;;;;45.08;40.97;;;12.70;99.90;;;;;;5228051;28;20457;-73
2023/05/05 05:05:28;;;;;;;42.97;39.03;;;12.80;99.90;;;;;;5227759;28;20031;-72
2023/05/05 05:07:58;;;;;;;43.72;40.03;;;12.70;99.90;;;;;;5227973;28;20032;-72
2023/05/05 05:10:29;;;;;;;45.47;41.78;;;12.80;99.90;;;;;;5209967;28;20086;-72
2023/05/05 05:13:00;;;;;;;44.63;40.78;;;12.90;99.90;;;;;;5227427;28;20049;-72
2023/05/05 05:15:31;;;;;;;44.33;40.63;;;12.90;99.90;;;;;;5227838;28;20025;-72
2023/05/05 05:18:01;;;;;;;41.63;37.85;;;13.00;99.90;;;;;;5227633;28;20456;-72
2023/05/05 05:20:32;;;;;;;40.92;37.15;;;13.00;99.90;;;;;;5209735;28;20021;-72
2023/05/05 05:23:03;;;;;;;41.55;37.85;;;13.00;99.90;;;;;;5209551;28;20029;-72
2023/05/05 05:25:34;;;;;;;42.65;38.83;;;13.00;99.90;;;;;;5209421;28;20069;-73
2023/05/05 05:28:05;;;;;;;41.40;37.40;;;13.10;99.90;;;;;;5227643;28;20056;-72
2023/05/05 05:30:36;;;;;;;42.78;38.72;;;13.00;99.90;;;;;;5227501;28;20025;-73
2023/05/05 05:33:06;;;;;;;41.97;38.58;;;13.00;99.90;;;;;;5227578;28;20029;-72
2023/05/05 05:35:38;;;;;;;39.03;35.60;;;13.10;99.90;;;;;;5227509;28;20029;-73
2023/05/05 05:38:09;;;;;;;42.15;38.65;;;13.00;99.90;;;;;;5227275;28;20024;-72
2023/05/05 05:40:40;;;;;;;45.30;41.33;;;13.00;99.90;;;;;;5227329;28;20121;-72
2023/05/05 05:43:10;;;;;;;40.80;37.38;;;13.00;99.90;;;;;;5209379;28;20035;-72
2023/05/05 05:45:41;;;;;;;39.40;35.85;;;13.10;99.90;;;;;;5227024;28;20040;-71
2023/05/05 05:48:12;;;;;;;41.20;37.58;;;13.10;99.90;;;;;;5226957;28;20025;-72
2023/05/05 05:50:43;;;;;;;42.90;39.10;;;13.10;99.90;;;;;;5227195;28;20385;-73
2023/05/05 05:53:13;;;;;;;42.28;38.55;;;13.20;99.90;;;;;;5227028;28;20051;-72
2023/05/05 05:55:48;;;;;;;40.40;36.58;;;13.20;99.90;;;;;;5227029;28;20031;-73
2023/05/05 05:58:18;;;;;;;44.25;39.80;;;13.10;99.90;;;;;;5209043;28;20025;-72
2023/05/05 06:00:49;;;;;;;41.78;37.70;;;13.10;99.90;;;;;;5208856;28;20031;-72
2023/05/05 06:03:20;;;;;;;42.90;39.15;;;13.30;99.90;;;;;;5225693;28;20025;-72
2023/05/05 06:05:51;;;;;;;43.17;39.08;;;13.30;99.90;;;;;;5226841;28;20488;-73
2023/05/05 06:08:21;;;;;;;39.42;35.90;;;13.50;99.90;;;;;;5226737;28;20362;-73
2023/05/05 06:10:52;;;;;;;41.92;38.15;;;13.50;99.90;;;;;;5226585;28;20105;-73
2023/05/05 06:13:23;;;;;;;40.25;36.75;;;13.50;99.90;;;;;;5208294;28;20049;-73
2023/05/05 06:15:54;;;;;;;40.47;36.92;;;13.50;99.90;;;;;;5226480;28;20502;-73
2023/05/05 06:18:25;;;;;;;39.30;35.50;;;13.40;99.90;;;;;;5226397;28;20040;-73
2023/05/05 06:20:56;;;;;;;41.83;38.05;;;13.40;99.90;;;;;;5226091;28;20029;-73
2023/05/05 06:23:26;;;;;;;39.08;35.53;;;13.50;99.90;;;;;;5208422;28;20025;-73
2023/05/05 06:25:57;;;;;;;41.03;37.28;;;13.40;99.90;;;;;;5225983;28;20041;-72
2023/05/05 06:28:28;;;;;;;39.00;35.55;;;13.30;99.90;;;;;;5226317;28;20017;-73
2023/05/05 06:30:59;;;;;;;36.08;32.67;;;13.30;99.90;;;;;;5226077;28;20041;-72
2023/05/05 06:33:29;;;;;;;39.25;35.47;;;13.30;99.90;;;;;;5226044;28;20024;-72
2023/05/05 06:36:00;;;;;;;39.60;35.90;;;13.20;99.90;;;;;;5225825;28;20025;-73
2023/05/05 06:38:31;;;;;;;38.05;34.95;;;13.40;99.90;;;;;;5226216;28;20480;-73
2023/05/05 06:41:02;;;;;;;36.97;34.13;;;13.40;99.90;;;;;;5208287;28;20463;-73
2023/05/05 06:43:33;;;;;;;36.08;32.85;;;13.60;99.90;;;;;;5225916;28;20083;-72
2023/05/05 06:46:04;;;;;;;34.90;31.67;;;13.70;99.90;;;;;;5226024;28;20036;-72
2023/05/05 06:48:34;;;;;;;31.48;28.83;;;13.80;99.90;;;;;;5226000;28;20083;-73
2023/05/05 06:51:06;;;;;;;38.45;35.17;;;13.70;99.90;;;;;;5225975;28;20025;-72
2023/05/05 06:53:36;;;;;;;38.15;34.75;;;13.80;99.90;;;;;;5226368;28;20025;-73
2023/05/05 06:56:07;;;;;;;36.95;34.00;;;13.70;99.90;;;;;;5208184;28;20029;-73
2023/05/05 06:58:38;;;;;;;36.05;32.97;;;13.70;99.90;;;;;;5207974;28;20025;-73
2023/05/05 07:01:09;;;;;;;34.83;31.98;;;13.60;99.90;;;;;;5225848;28;20025;-72
2023/05/05 07:03:40;;;;;;;35.63;32.70;;;13.50;99.90;;;;;;5225769;28;20025;-72
2023/05/05 07:06:11;;;;;;;37.65;34.33;;;13.50;99.90;;;;;;5225686;28;20079;-72
2023/05/05 07:08:42;;;;;;;33.53;30.88;;;13.50;99.90;;;;;;5207978;28;20025;-73
2023/05/05 07:11:12;;;;;;;36.10;33.17;;;13.60;99.90;;;;;;5225809;28;20033;-73
2023/05/05 07:13:43;;;;;;;37.45;34.58;;;13.40;99.90;;;;;;5226936;28;20393;-73
2023/05/05 07:16:14;;;;;;;38.13;35.15;;;13.50;99.90;;;;;;5230036;28;20080;-73
2023/05/05 07:18:45;;;;;;;36.05;33.25;;;13.60;99.90;;;;;;5230016;28;20024;-72
2023/05/05 07:21:15;;;;;;;38.65;35.25;;;13.70;99.90;;;;;;5229907;28;20064;-73
2023/05/05 07:23:46;;;;;;;34.97;32.13;;;13.70;99.90;;;;;;5229902;28;20025;-72
2023/05/05 07:26:17;;;;;;;33.15;30.50;;;13.70;99.90;;;;;;5229754;28;20524;-72
2023/05/05 07:28:50;;;;;;;33.75;31.10;;;13.80;99.90;;;;;;5211613;28;20397;-73
2023/05/05 07:31:22;;;;;;;32.92;30.02;;;13.80;99.90;;;;;;5230091;28;20106;-72
2023/05/05 07:33:53;;;;;;;33.38;30.80;;;13.70;99.90;;;;;;5229843;28;20051;-72
2023/05/05 07:36:23;;;;;;;36.40;33.20;;;13.80;99.90;;;;;;5229713;28;20017;-72
2023/05/05 07:38:54;;;;;;;32.38;29.50;;;14.20;99.90;;;;;;5229286;28;20811;-73
2023/05/05 07:41:25;;;;;;;29.40;26.77;;;14.30;99.90;;;;;;5211719;28;20094;-72
2023/05/05 07:43:56;;;;;;;28.77;26.48;;;14.70;99.90;;;;;;5211497;28;20425;-73
2023/05/05 07:46:26;;;;;;;27.08;24.63;;;14.90;99.90;;;;;;5229184;28;20365;-72
2023/05/05 07:48:57;;;;;;;25.75;23.75;;;15.00;99.90;;;;;;5229469;28;20021;-73
2023/05/05 07:51:28;;;;;;;26.75;24.48;;;14.70;99.90;;;;;;5229136;28;20025;-72
2023/05/05 07:53:59;;;;;;;28.13;25.92;;;14.30;99.90;;;;;;5229469;28;20103;-73
2023/05/05 07:56:30;;;;;;;29.52;27.27;;;14.20;99.90;;;;;;5229279;28;20059;-72
2023/05/05 07:59:01;;;;;;;33.00;30.13;;;14.30;99.90;;;;;;5211323;28;20016;-72
2023/05/05 08:01:31;;;;;;;30.80;28.08;;;14.40;99.90;;;;;;5229617;28;20021;-72
2023/05/05 08:04:02;;;;;;;30.40;28.02;;;14.40;99.90;;;;;;5229390;28;20028;-72
2023/05/05 08:06:33;;;;;;;30.95;28.17;;;14.40;99.90;;;;;;5229106;28;20072;-72
2023/05/05 08:09:04;;;;;;;29.85;27.60;;;14.20;99.90;;;;;;5228548;28;20037;-73
2023/05/05 08:11:34;;;;;;;31.73;29.27;;;13.90;99.90;;;;;;5228865;28;20640;-73
2023/05/05 08:14:06;;;;;;;32.63;29.95;;;14.00;99.90;;;;;;5228692;28;20377;-73
2023/05/05 08:16:37;;;;;;;35.05;32.28;;;13.80;99.90;;;;;;5228991;28;20029;-72
2023/05/05 08:19:08;;;;;;;33.58;30.98;;;13.60;99.90;;;;;;5228811;28;20036;-72
2023/05/05 08:21:38;;;;;;;35.10;32.30;;;13.70;99.90;;;;;;5228802;28;20078;-73
2023/05/05 08:24:09;;;;;;;32.58;30.08;;;13.70;99.90;;;;;;5210594;28;20013;-72
2023/05/05 08:26:40;;;;;;;34.80;32.17;;;13.70;99.90;;;;;;5227773;28;20033;-73
2023/05/05 08:29:11;;;;;;;36.00;33.30;;;13.80;99.90;;;;;;5228605;28;20404;-72
2023/05/05 08:31:43;;;;;;;31.88;29.50;;;14.00;99.90;;;;;;5228624;28;20041;-73
2023/05/05 08:34:13;;;;;;;31.67;29.00;;;14.10;99.90;;;;;;5228623;28;20388;-73
2023/05/05 08:36:44;;;;;;;32.17;29.58;;;14.10;99.90;;;;;;5228393;28;20029;-73
2023/05/05 08:39:15;;;;;;;32.10;29.23;;;14.10;99.90;;;;;;5228605;28;20061;-73
2023/05/05 08:41:46;;;;;;;31.27;28.98;;;14.10;99.90;;;;;;5228249;28;20032;-71
2023/05/05 08:44:17;;;;;;;29.73;27.42;;;14.20;99.90;;;;;;5228639;28;20037;-73
2023/05/05 08:46:48;;;;;;;32.70;30.48;;;14.00;99.90;;;;;;5228368;28;20500;-73
2023/05/05 08:49:21;;;;;;;32.92;30.60;;;13.80;99.90;;;;;;5228593;28;20111;-73
2023/05/05 08:51:53;;;;;;;35.28;32.65;;;13.80;99.90;;;;;;5228200;28;20088;-73
2023/05/05 08:54:29;;;;;;;36.75;33.65;;;13.80;99.90;;;;;;5228351;28;20033;-73
2023/05/05 08:57:02;;;;;;;34.63;32.05;;;13.80;99.90;;;;;;5228285;28;20112;-72
2023/05/05 08:59:34;;;;;;;34.38;31.50;;;13.90;99.90;;;;;;5228217;28;20465;-72
2023/05/05 09:02:07;;;;;;;31.23;28.75;;;14.00;99.90;;;;;;5228220;28;20095;-73
2023/05/05 09:04:38;;;;;;;31.58;29.13;;;14.00;99.90;;;;;;5228099;28;20021;-72
2023/05/05 09:07:09;;;;;;;32.95;30.23;;;13.90;99.90;;;;;;5227779;28;20033;-72
2023/05/05 09:09:40;;;;;;;33.60;30.85;;;14.00;99.90;;;;;;5228024;28;20028;-72
2023/05/05 09:12:11;;;;;;;32.60;29.95;;;14.00;99.90;;;;;;5228249;28;20021;-73
2023/05/05 09:14:42;;;;;;;33.30;30.52;;;14.10;99.90;;;;;;5227794;28;20398;-73
2023/05/05 09:17:26;;;;;;;32.95;30.33;;;13.80;99.90;;;;;;5227831;28;20029;-72
2023/05/05 09:20:13;;;;;;;31.17;28.85;;;13.80;99.90;;;;;;5209531;28;20539;-72
2023/05/05 09:22:46;;;;;;;32.08;29.55;;;14.00;99.90;;;;;;5227785;28;20036;-73
2023/05/05 09:25:17;;;;;;;32.60;29.95;;;13.90;99.90;;;;;;5227568;28;20038;-72
2023/05/05 09:27:49;;;;;;;33.70;31.20;;;13.80;99.90;;;;;;5227407;28;20033;-72
2023/05/05 09:30:24;;;;;;;34.10;31.15;;;13.80;99.90;;;;;;5227375;28;20032;-72
2023/05/05 09:32:55;;;;;;;32.38;29.95;;;14.00;99.90;;;;;;5227372;28;20021;-73
2023/05/05 09:35:26;;;;;;;32.10;29.58;;;14.00;99.90;;;;;;5227311;28;20037;-72
2023/05/05 09:38:09;;;;;;;34.72;32.17;;;13.80;99.90;;;;;;5227102;28;20071;-72
2023/05/05 09:40:51;;;;;;;33.83;30.65;;;13.70;99.90;;;;;;5227276;28;20036;-72
2023/05/05 09:43:22;;;;;;;35.97;33.00;;;13.80;99.90;;;;;;5227105;28;20439;-72
2023/05/05 09:46:07;;;;;;;32.38;29.90;;;13.90;99.90;;;;;;5227110;28;20144;-72
2023/05/05 09:48:38;;;;;;;36.00;32.80;;;13.70;99.90;;;;;;5227035;28;20453;-72
2023/05/05 09:51:09;;;;;;;35.38;32.78;;;13.90;99.90;;;;;;5227042;28;20056;-73
2023/05/05 09:53:41;;;;;;;34.92;31.77;;;13.80;99.90;;;;;;5226922;28;20481;-73
2023/05/05 09:56:12;;;;;;;32.90;30.40;;;13.90;99.90;;;;;;5227357;28;20503;-72
2023/05/05 09:58:42;;;;;;;31.95;29.35;;;13.80;99.90;;;;;;5226817;28;20021;-72
2023/05/05 10:01:23;;;;;;;31.23;28.90;;;13.90;99.90;;;;;;5226731;28;20032;-72
2023/05/05 10:03:54;;;;;;;30.05;27.48;;;14.30;99.90;;;;;;5227023;28;20048;-72
2023/05/05 10:06:46;;;;;;;29.98;27.42;;;14.50;99.90;;;;;;5226865;28;20037;-73
2023/05/05 10:09:17;;;;;;;31.33;28.73;;;14.40;99.90;;;;;;5227054;28;20031;-73
2023/05/05 10:11:49;;;;;;;33.47;30.70;;;14.40;99.90;;;;;;5226483;28;20111;-73
2023/05/05 10:14:19;;;;;;;33.60;30.80;;;14.60;99.90;;;;;;5226624;28;20056;-72
2023/05/05 10:16:52;;;;;;;26.80;24.67;;;14.50;99.90;;;;;;5226581;28;20561;-73
2023/05/05 10:19:25;;;;;;;24.80;22.92;;;14.80;99.90;;;;;;5226677;28;20013;-73
2023/05/05 10:22:03;;;;;;;24.63;22.52;;;14.90;99.90;;;;;;5226960;28;20021;-72
2023/05/05 10:24:39;;;;;;;23.20;21.30;;;15.00;99.90;;;;;;5226829;28;20437;-72
2023/05/05 10:27:19;;;;;;;25.55;23.10;;;15.00;99.90;;;;;;5226392;28;20045;-72
2023/05/05 10:30:05;;;;;;;24.60;22.48;;;15.00;99.90;;;;;;5226418;28;20039;-72
2023/05/05 10:32:46;;;;;;;24.40;22.27;;;14.80;99.90;;;;;;5226242;28;20155;-72
2023/05/05 10:35:21;;;;;;;;;;;14.90;99.90;;;;;;5226663;28;20025;-72
2023/05/05 10:37:52;;;;;;;27.90;25.40;;;14.80;99.90;;;;;;5226355;28;20256;-73
2023/05/05 10:40:23;;;;;;;24.58;22.55;;;14.80;99.90;;;;;;5226068;28;20052;-72
2023/05/05 10:42:54;;;;;;;26.20;24.00;;;14.90;99.90;;;;;;5226198;28;20392;-72
2023/05/05 10:45:25;;;;;;;26.00;23.50;;;15.00;99.90;;;;;;5225951;28;20041;-73
2023/05/05 10:48:00;;;;;;;26.92;24.63;;;14.90;99.90;;;;;;5225402;28;20037;-72
2023/05/05 10:50:39;;;;;;;28.65;26.00;;;14.70;99.90;;;;;;5226081;28;20009;-73
2023/05/05 10:53:24;;;;;;;26.45;24.45;;;14.80;99.90;;;;;;5226062;28;20036;-73
2023/05/05 10:56:09;;;;;;;28.15;25.63;;;14.80;99.90;;;;;;5225938;28;20029;-73
2023/05/05 10:58:40;;;;;;;26.67;24.20;;;14.90;99.90;;;;;;5225943;28;20029;-73
2023/05/05 11:01:11;;;;;;;30.92;28.13;;;14.20;99.90;;;;;;5225973;28;20025;-72
2023/05/05 11:03:42;;;;;;;28.10;25.77;;;14.20;99.90;;;;;;5225837;28;20114;-72
2023/05/05 11:06:13;;;;;;;31.83;29.10;;;14.30;99.90;;;;;;5225620;28;20076;-72
2023/05/05 11:08:44;;;;;;;29.88;27.23;;;14.40;99.90;;;;;;5225824;28;20400;-72
2023/05/05 11:14:16;;;;;;;;;;;14.50;99.90;;;;;;5430884;23;20053;-74
2023/05/05 11:16:48;;;;;;;30.45;27.85;;;14.60;99.90;;;;;;5205202;28;19905;-74
2023/05/05 11:19:41;;;;;;;27.63;25.40;;;14.60;99.90;;;;;;5205309;28;20528;-73
2023/05/05 11:22:12;;;;;;;33.55;30.73;;;14.50;99.90;;;;;;5187582;28;20468;-74
2023/05/05 11:24:43;;;;;;;32.97;30.45;;;14.20;99.90;;;;;;5187551;28;20025;-72
2023/05/05 11:27:14;;;;;;;33.67;31.08;;;14.20;99.90;;;;;;5204986;28;20042;-73
2023/05/05 11:30:05;;;;;;;30.70;28.08;;;14.30;99.90;;;;;;5205258;28;20021;-74
2023/05/05 11:32:36;;;;;;;34.03;30.92;;;14.30;99.90;;;;;;5205118;28;20028;-73
2023/05/05 11:35:07;;;;;;;34.15;31.58;;;13.90;99.90;;;;;;5205577;28;20485;-73
2023/05/05 11:37:38;;;;;;;37.10;33.88;;;13.90;99.90;;;;;;5205701;28;20040;-73
2023/05/05 11:40:20;;;;;;;38.70;35.28;;;13.90;99.90;;;;;;5205042;28;20026;-74
2023/05/05 11:43:04;;;;;;;37.67;34.50;;;13.90;99.90;;;;;;5204775;28;20033;-73
2023/05/05 11:45:35;;;;;;;40.10;36.67;;;13.80;99.90;;;;;;5187172;28;20489;-74
2023/05/05 11:48:25;;;;;;;39.28;36.10;;;13.80;99.90;;;;;;5204850;28;20033;-74
2023/05/05 11:50:56;;;;;;;;;;;13.70;99.90;;;;;;5205215;28;20014;-74
2023/05/05 11:53:27;;;;;;;36.55;33.13;;;13.90;99.90;;;;;;5204766;28;19913;-73
2023/05/05 11:56:09;;;;;;;34.15;31.55;;;13.80;99.90;;;;;;5204464;28;20105;-73
2023/05/05 11:58:40;;;;;;;35.08;32.25;;;13.90;99.90;;;;;;5204786;28;20108;-74
2023/05/05 12:01:14;;;;;;;37.40;34.53;;;13.70;99.90;;;;;;5208396;28;20487;-74
2023/05/05 12:03:45;;;;;;;39.17;35.75;;;13.80;99.90;;;;;;5208437;28;20033;-74
2023/05/05 12:06:17;;;;;;;36.08;32.95;;;13.80;99.90;;;;;;5208275;28;20359;-74
2023/05/05 12:08:48;;;;;;;38.80;35.20;;;13.90;99.90;;;;;;5208617;28;20551;-73
2023/05/05 12:11:19;;;;;;;38.60;35.13;;;13.60;99.90;;;;;;5208343;28;20034;-73
2023/05/05 12:14:07;;;;;;;34.65;31.63;;;13.70;99.90;;;;;;5208113;28;20049;-73
2023/05/05 12:16:38;;;;;;;35.45;32.47;;;13.60;99.90;;;;;;5208370;28;20030;-73
2023/05/05 12:19:13;;;;;;;33.65;30.80;;;13.60;99.90;;;;;;5208181;28;20649;-73
2023/05/05 12:21:44;;;;;;;33.88;31.17;;;13.80;99.90;;;;;;5208143;28;20027;-74
2023/05/05 12:24:16;;;;;;;36.58;33.10;;;13.80;99.90;;;;;;5208098;28;20030;-74
2023/05/05 12:26:46;;;;;;;37.28;33.92;;;13.80;99.90;;;;;;5207860;28;20029;-74
2023/05/05 12:29:25;;;;;;;34.65;31.60;;;13.90;99.90;;;;;;5208001;28;20052;-74
2023/05/05 12:31:56;;;;;;;33.35;30.63;;;13.70;99.90;;;;;;5207832;28;20420;-74
2023/05/05 12:34:27;;;;;;;31.98;29.38;;;13.90;99.90;;;;;;5208007;28;20044;-74
2023/05/05 12:36:58;;;;;;;35.83;32.65;;;13.90;99.90;;;;;;5207908;28;20025;-74
2023/05/05 12:39:35;;;;;;;37.03;34.22;;;13.90;99.90;;;;;;5207793;28;20034;-74
2023/05/05 12:42:06;;;;;;;34.28;31.38;;;13.80;99.90;;;;;;5207520;28;20092;-73
2023/05/05 12:44:38;;;;;;;34.97;32.10;;;14.20;99.90;;;;;;5208119;28;20060;-73
2023/05/05 12:47:10;;;;;;;31.05;28.50;;;14.40;99.90;;;;;;5207696;28;20036;-73
2023/05/05 12:49:50;;;;;;;32.42;30.05;;;14.60;99.90;;;;;;5207724;28;20029;-74
2023/05/05 12:52:21;;;;;;;;;;;14.70;99.90;;;;;;5208298;28;20049;-73
2023/05/05 12:54:56;;;;;;;28.35;26.33;;;14.80;99.90;;;;;;5207581;28;19952;-74
2023/05/05 12:57:27;;;;;;;27.10;24.75;;;15.10;99.90;;;;;;5207415;28;20029;-73
2023/05/05 13:00:11;;;;;;;23.55;21.30;;;15.20;99.90;;;;;;5207184;28;20491;-73
2023/05/05 13:02:41;;;;;;;22.20;20.27;;;15.00;99.90;;;;;;5207335;28;20032;-73